Flight Number: EUR1568 Duration: 2:45
Departure: Heraklion (Crete) (LGIR) at 08:00 Distance: 1393 Nm
Arrival: Basel-Mulhouse (LFSB) at 10:45 Equipment: A321

Weather Information
Heraklion Airport , Greece (LGIR) 35-20N 025-11E 39M Sep 21, 2017 - 09:50 AM EDT / 2017.09.21 1350 UTC
Wind: from the WNW (300 degrees) at 29 MPH (25 KT):0
Visibility: greater than 7 mile(s):0
Sky conditions: mostly clear Temperature: 80 F (27 C) Dew Point: 62 F (17 C) Relative Humidity: 54% Pressure (altimeter): 29.94 in. Hg (1014 hPa)
ob: LGIR 211350Z 30025KT 9999 FEW025 27/17 Q1014 NOSIG cycle: 14
Sunrise: 04:09 Sunset: 16:14 (UTC)

Bale-Mulhouse, France (LFSB) 47-36N 007-31E 271M Sep 21, 2017 - 10:00 AM EDT / 2017.09.21 1400 UTC
Wind: from the ESE (110 degrees) at 7 MPH (6 KT) (direction variable):0
Visibility: greater than 7 mile(s):0 Temperature: 68 F (20 C) Dew Point: 42 F (6 C) Relative Humidity: 39% Pressure (altimeter): 30.09 in. Hg (1019 hPa)
ob: LFSB 211400Z 11006KT 060V130 CAVOK 20/06 Q1019 NOSIG cycle: 14
Sunrise: 05:19 Sunset: 17:25 (UTC)

TAF:2017/09/21 12:21 TAF LFSB 211100Z 2112/2212 03006KT CAVOK PROB40 TEMPO 2123/2206 3000 BCFG

Previous Pireps for this route
Date Aircraft Flight time Fuel used Landing rate On time
2013-03-23A32103.1327288-278Charter
2016-05-15A32102.4716007-129Yes
(pireps marked green are flown by you)

Route map